Time;durP1;ratioP1;P1;durP2;ratioP2;P2;SDS_P1;SDS_P2;PMS_P1;PMS_P2;Temp;Humidity;BMP_temperature;BMP_pressure;BME280_temperature;BME280_humidity;BME280_pressure;Samples;Min_cycle;Max_cycle;Signal;HPM_P1;HPM_P2
2022/07/31 00:01:45;;;;;;;7.58;5.45;;;;;;;16.74;91.79;99726.39;1738461;82;25195;-69
2022/07/31 00:04:11;;;;;;;8.15;5.35;;;;;;;16.74;91.91;99727.75;1731151;82;27359;-69
2022/07/31 00:06:40;;;;;;;9.48;6.03;;;;;;;16.74;91.89;99729.12;1730726;82;25769;-69
2022/07/31 00:09:06;;;;;;;7.62;5.15;;;;;;;16.73;91.98;99722.06;1711428;82;25646;-68
2022/07/31 00:11:32;;;;;;;7.12;5.83;;;;;;;16.72;91.89;99717.19;1706974;84;25605;-68
2022/07/31 00:13:58;;;;;;;9.10;5.30;;;;;;;16.71;92.01;99712.09;1707816;83;25576;-68
2022/07/31 00:16:25;;;;;;;6.53;5.67;;;;;;;16.71;92.19;99716.19;1707662;83;27409;-69
2022/07/31 00:18:51;;;;;;;8.55;5.65;;;;;;;16.71;92.24;99710.73;1707322;83;25711;-69
2022/07/31 00:21:17;;;;;;;6.37;5.35;;;;;;;16.70;92.24;99711.31;1707517;83;25463;-69
2022/07/31 00:23:43;;;;;;;10.40;5.92;;;;;;;16.69;92.23;99708.94;1707727;83;25592;-69
2022/07/31 00:26:09;;;;;;;7.45;5.80;;;;;;;16.68;92.32;99712.23;1707744;84;25472;-70
2022/07/31 00:28:36;;;;;;;7.47;5.40;;;;;;;16.68;92.34;99702.67;1708191;83;27341;-70
2022/07/31 00:31:03;;;;;;;7.50;5.40;;;;;;;16.67;92.47;99703.03;1707477;84;25680;-70
2022/07/31 00:33:29;;;;;;;12.28;6.30;;;;;;;16.67;92.71;99703.84;1707602;84;25436;-70
2022/07/31 00:35:56;;;;;;;9.25;5.20;;;;;;;16.66;92.77;99700.89;1707631;83;25629;-70
2022/07/31 00:38:22;;;;;;;8.83;5.25;;;;;;;16.65;92.74;99704.77;1707791;83;25466;-69
2022/07/31 00:40:49;;;;;;;7.72;5.40;;;;;;;16.66;92.92;99698.16;1707982;83;28002;-69
2022/07/31 00:43:21;;;;;;;8.78;5.55;;;;;;;16.67;93.03;99696.21;1672997;85;25591;-69
2022/07/31 00:45:46;;;;;;;9.50;5.67;;;;;;;16.65;93.17;99701.25;1672055;85;25479;-69
2022/07/31 00:48:13;;;;;;;8.88;5.60;;;;;;;16.62;93.15;99700.83;1672885;85;25704;-70
2022/07/31 00:50:39;;;;;;;9.38;6.45;;;;;;;16.62;93.40;99704.92;1672979;85;25481;-69
2022/07/31 00:53:05;;;;;;;6.97;5.72;;;;;;;16.64;93.56;99708.66;1672932;85;28055;-69
2022/07/31 00:55:31;;;;;;;8.10;5.85;;;;;;;16.64;93.66;99707.30;1672899;85;25670;-69
2022/07/31 00:57:57;;;;;;;8.75;5.67;;;;;;;16.65;93.75;99706.13;1672971;85;25532;-69
2022/07/31 01:00:23;;;;;;;7.60;5.40;;;;;;;16.65;93.90;99697.94;1672828;85;25828;-69
2022/07/31 01:02:50;;;;;;;7.30;5.08;;;;;;;16.66;94.00;99703.63;1672797;85;25508;-69
2022/07/31 01:05:17;;;;;;;11.93;5.85;;;;;;;16.68;94.04;99697.80;1672897;85;28029;-69
2022/07/31 01:07:47;;;;;;;8.03;6.22;;;;;;;16.69;94.10;99701.53;1675854;84;25805;-69
2022/07/31 01:10:20;;;;;;;9.35;6.47;;;;;;;16.69;94.05;99696.66;1697095;84;25460;-69
2022/07/31 01:12:56;;;;;;;8.63;6.42;;;;;;;16.70;94.10;99694.13;1694733;84;26312;-69
2022/07/31 01:15:25;;;;;;;11.65;6.83;;;;;;;16.69;94.07;99685.73;1696818;84;25574;-69
2022/07/31 01:17:54;;;;;;;7.40;6.60;;;;;;;16.69;94.12;99685.15;1697794;84;27396;-69
2022/07/31 01:20:20;;;;;;;10.20;6.87;;;;;;;16.66;94.09;99677.68;1697599;83;25409;-69
2022/07/31 01:23:08;;;;;;;10.75;6.85;;;;;;;16.67;94.14;99676.54;1697532;84;25661;-69
2022/07/31 01:26:01;;;;;;;8.65;6.87;;;;;;;16.68;94.18;99678.69;1703156;83;25863;-69
2022/07/31 01:29:20;;;;;;;9.60;6.53;;;;;;;16.67;94.15;99675.17;1703110;84;25567;-69
2022/07/31 01:31:58;;;;;;;6.85;6.20;;;;;;;16.66;94.34;99668.13;1699477;84;26884;-69
2022/07/31 01:34:49;;;;;;;7.60;6.30;;;;;;;16.62;94.21;99662.61;1697469;84;25621;-69
2022/07/31 01:37:29;;;;;;;8.13;6.58;;;;;;;16.62;94.19;99660.47;1690525;83;25506;-68
2022/07/31 01:40:07;;;;;;;9.25;6.47;;;;;;;16.59;94.34;99660.60;1700685;83;26275;-68
2022/07/31 01:42:37;;;;;;;9.60;6.85;;;;;;;16.59;94.45;99656.51;1697423;84;25423;-68
2022/07/31 01:45:07;;;;;;;12.07;6.65;;;;;;;16.59;94.39;99647.53;1697375;84;27322;-68
2022/07/31 01:47:34;;;;;;;8.98;7.08;;;;;;;16.58;94.36;99650.05;1697362;84;25391;-68
2022/07/31 01:50:04;;;;;;;8.28;5.87;;;;;;;16.57;94.39;99650.63;1697450;84;25572;-68
2022/07/31 01:52:32;;;;;;;7.45;6.28;;;;;;;16.55;94.48;99646.12;1697728;83;25656;-68
2022/07/31 01:55:00;;;;;;;10.08;6.70;;;;;;;16.54;94.67;99637.70;1697912;82;25619;-69
2022/07/31 01:57:31;;;;;;;9.38;6.03;;;;;;;16.55;94.89;99627.56;1697897;83;28103;-70
2022/07/31 02:00:05;;;;;;;8.33;5.92;;;;;;;16.55;94.86;99634.39;1697372;84;25673;-70
2022/07/31 02:02:33;;;;;;;7.28;6.15;;;;;;;16.55;94.93;99635.20;1697372;84;25568;-70
2022/07/31 02:05:23;;;;;;;9.13;6.33;;;;;;;16.55;94.70;99631.10;1697399;83;25613;-70
2022/07/31 02:07:51;;;;;;;8.98;6.05;;;;;;;16.54;94.84;99631.47;1675696;84;25663;-69
2022/07/31 02:10:19;;;;;;;12.95;6.20;;;;;;;16.53;94.75;99634.78;1675497;85;27388;-69
2022/07/31 02:12:47;;;;;;;9.75;5.95;;;;;;;16.53;94.80;99628.52;1675415;85;25687;-69
2022/07/31 02:15:15;;;;;;;7.70;5.72;;;;;;;16.53;94.91;99629.88;1675514;85;25610;-69
2022/07/31 02:17:44;;;;;;;8.45;5.87;;;;;;;16.52;94.91;99623.64;1675477;85;25726;-69
2022/07/31 02:20:12;;;;;;;8.90;5.12;;;;;;;16.53;94.89;99621.69;1683000;85;33520;-69
2022/07/31 02:22:39;;;;;;;7.50;5.25;;;;;;;16.53;94.94;99623.86;1685305;85;27393;-69
2022/07/31 02:25:07;;;;;;;6.40;5.65;;;;;;;16.53;94.80;99622.50;1685302;85;25817;-69
2022/07/31 02:27:34;;;;;;;10.30;5.40;;;;;;;16.52;95.05;99625.00;1685364;85;25467;-69
2022/07/31 02:30:04;;;;;;;10.55;5.75;;;;;;;16.52;94.74;99621.49;1685276;85;26300;-69
2022/07/31 02:32:33;;;;;;;6.58;5.40;;;;;;;16.49;94.71;99616.17;1685484;85;25694;-69
2022/07/31 02:35:01;;;;;;;8.68;4.90;;;;;;;16.48;94.58;99613.80;1685486;85;28085;-69
2022/07/31 02:37:30;;;;;;;5.65;4.72;;;;;;;16.47;94.83;99614.39;1685254;85;25571;-69
2022/07/31 02:39:59;;;;;;;6.70;6.08;;;;;;;16.46;94.92;99610.08;1685621;85;25642;-69
2022/07/31 02:42:26;;;;;;;7.37;5.50;;;;;;;16.44;94.60;99609.66;1685704;85;25644;-69
2022/07/31 02:44:54;;;;;;;12.40;5.65;;;;;;;16.42;94.71;99608.66;1683961;85;25597;-69
2022/07/31 02:47:20;;;;;;;10.88;5.15;;;;;;;16.41;94.84;99600.83;1683864;85;27571;-69
2022/07/31 02:49:46;;;;;;;6.55;5.10;;;;;;;16.39;94.90;99605.28;1686809;85;25773;-69
2022/07/31 02:52:12;;;;;;;6.00;4.97;;;;;;;16.38;94.95;99609.19;1687029;84;25702;-69
2022/07/31 02:54:41;;;;;;;8.63;5.45;;;;;;;16.37;94.84;99602.72;1687012;84;25666;-69
2022/07/31 02:57:08;;;;;;;4.62;4.22;;;;;;;16.35;94.74;99610.49;1686973;84;25649;-69
2022/07/31 02:59:38;;;;;;;5.85;4.85;;;;;;;16.33;94.90;99605.39;1686933;84;27440;-69
2022/07/31 03:02:06;;;;;;;7.12;5.35;;;;;;;16.32;95.12;99605.17;1686900;84;25396;-69
2022/07/31 03:04:32;;;;;;;6.70;4.78;;;;;;;16.33;95.18;99604.03;1686928;84;25578;-69
2022/07/31 03:06:59;;;;;;;9.23;5.87;;;;;;;16.31;95.25;99600.08;1686800;84;25675;-69
2022/07/31 03:09:27;;;;;;;7.12;4.87;;;;;;;16.33;95.40;99594.48;1686944;84;25482;-69
2022/07/31 03:11:53;;;;;;;5.65;4.72;;;;;;;16.32;95.50;99602.44;1686871;85;27942;-69
2022/07/31 03:14:22;;;;;;;6.97;5.28;;;;;;;16.30;95.40;99595.20;1686910;85;25725;-69
2022/07/31 03:16:50;;;;;;;9.13;5.55;;;;;;;16.30;95.57;99583.52;1667274;85;25605;-69
2022/07/31 03:19:19;;;;;;;6.20;5.35;;;;;;;16.28;95.58;99579.78;1686911;84;25622;-69
2022/07/31 03:21:47;;;;;;;;;;;;;;;16.28;95.78;99582.51;1689382;85;25549;-69
2022/07/31 03:24:14;;;;;;;11.48;5.17;;;;;;;16.29;96.04;99579.97;1686918;85;28148;-69
2022/07/31 03:26:41;;;;;;;6.58;5.45;;;;;;;16.27;96.04;99580.14;1686826;84;25631;-69
2022/07/31 03:29:07;;;;;;;8.95;4.83;;;;;;;16.26;96.06;99576.63;1686909;84;25580;-69
2022/07/31 03:31:33;;;;;;;8.78;5.22;;;;;;;16.26;96.12;99573.91;1686917;85;26431;-69
2022/07/31 03:34:00;;;;;;;6.92;5.37;;;;;;;16.27;96.48;99571.37;1686922;85;25617;-69
2022/07/31 03:36:28;;;;;;;7.58;5.70;;;;;;;16.27;96.41;99574.09;1686976;84;27391;-69
2022/07/31 03:38:54;;;;;;;6.00;5.12;;;;;;;16.25;96.49;99572.31;1686849;84;25456;-69
2022/07/31 03:41:20;;;;;;;7.67;6.08;;;;;;;16.22;96.50;99571.09;1686844;84;25655;-69
2022/07/31 03:43:47;;;;;;;7.65;5.37;;;;;;;16.22;96.48;99563.48;1686860;84;25582;-69
2022/07/31 03:46:17;;;;;;;7.10;5.58;;;;;;;16.21;96.69;99566.80;1686920;84;25476;-69
2022/07/31 03:48:45;;;;;;;8.45;5.37;;;;;;;16.22;96.79;99562.12;1686912;85;28005;-69
2022/07/31 03:51:14;;;;;;;9.10;5.30;;;;;;;16.22;96.87;99559.40;1686720;84;25408;-69
2022/07/31 03:53:43;;;;;;;9.90;5.75;;;;;;;16.20;96.78;99564.44;1687008;85;25579;-68
2022/07/31 03:56:10;;;;;;;9.90;6.12;;;;;;;16.20;96.86;99561.70;1686844;85;26268;-69
2022/07/31 03:58:37;;;;;;;8.55;5.90;;;;;;;16.19;97.16;99561.48;1686914;84;25691;-69
2022/07/31 04:01:04;;;;;;;7.50;6.03;;;;;;;16.18;97.13;99557.98;1686846;84;27340;-69
2022/07/31 04:03:31;;;;;;;8.50;5.85;;;;;;;16.19;97.25;99560.13;1686795;85;25631;-69
2022/07/31 04:05:57;;;;;;;6.22;5.67;;;;;;;16.18;97.30;99551.16;1687117;84;25442;-69
2022/07/31 04:08:24;;;;;;;10.68;5.42;;;;;;;16.19;97.55;99547.84;1687154;83;26336;-69
2022/07/31 04:10:50;;;;;;;6.12;5.47;;;;;;;16.21;97.70;99551.02;1686938;84;25575;-69
2022/07/31 04:13:16;;;;;;;9.70;5.67;;;;;;;16.21;97.86;99540.88;1686952;84;27355;-69
2022/07/31 04:15:42;;;;;;;5.87;5.25;;;;;;;16.22;98.00;99535.63;1686781;84;25713;-70
2022/07/31 04:18:08;;;;;;;8.43;5.83;;;;;;;16.24;98.00;99540.72;1686874;84;25563;-70
2022/07/31 04:20:34;;;;;;;6.55;5.53;;;;;;;16.26;98.21;99538.44;1686910;84;25632;-70
2022/07/31 04:23:02;;;;;;;6.03;5.42;;;;;;;16.28;98.26;99538.84;1687027;84;25557;-70
2022/07/31 04:25:28;;;;;;;8.30;5.75;;;;;;;16.29;98.24;99539.62;1686788;84;27330;-70
2022/07/31 04:27:54;;;;;;;5.40;4.70;;;;;;;16.29;98.35;99536.90;1686758;84;25456;-70
2022/07/31 04:30:21;;;;;;;6.95;5.35;;;;;;;16.29;98.26;99533.58;1686822;84;27307;-70
2022/07/31 04:32:47;;;;;;;5.45;5.03;;;;;;;16.31;98.51;99540.85;1686839;84;25691;-70
2022/07/31 04:35:13;;;;;;;5.70;5.20;;;;;;;16.33;98.72;99534.45;1686901;84;25657;-70
2022/07/31 04:37:39;;;;;;;9.25;4.37;;;;;;;16.34;98.68;99533.27;1686910;84;27990;-70
2022/07/31 04:40:07;;;;;;;4.62;4.22;;;;;;;16.34;98.65;99537.37;1686824;84;25637;-70
2022/07/31 04:42:33;;;;;;;4.83;4.42;;;;;;;16.34;98.61;99531.13;1686988;85;25581;-70
2022/07/31 04:44:59;;;;;;;5.22;4.30;;;;;;;16.36;98.97;99528.27;1686812;84;26385;-70
2022/07/31 04:47:25;;;;;;;5.08;4.65;;;;;;;16.39;99.02;99534.91;1686861;85;25618;-70
2022/07/31 04:49:52;;;;;;;4.37;3.98;;;;;;;16.39;98.92;99533.55;1686793;85;27406;-70
2022/07/31 04:52:18;;;;;;;4.37;3.98;;;;;;;16.39;99.05;99527.50;1686708;84;25703;-70
2022/07/31 04:54:44;;;;;;;5.42;4.28;;;;;;;16.42;99.11;99538.28;1686844;85;25404;-70
2022/07/31 04:57:10;;;;;;;4.58;4.20;;;;;;;16.43;98.98;99537.14;1686823;84;25710;-70
2022/07/31 04:59:36;;;;;;;3.92;3.62;;;;;;;16.42;98.77;99536.33;1686875;85;25612;-70
2022/07/31 05:02:03;;;;;;;6.35;3.90;;;;;;;16.41;98.86;99544.33;1686898;84;29613;-70
2022/07/31 05:04:29;;;;;;;5.00;4.50;;;;;;;16.42;99.11;99534.96;1686750;84;25710;-70
2022/07/31 05:06:55;;;;;;;5.97;4.55;;;;;;;16.43;99.07;99534.41;1686768;84;25440;-70
2022/07/31 05:09:23;;;;;;;5.47;4.37;;;;;;;16.44;99.11;99532.65;1686820;84;26395;-70
2022/07/31 05:11:51;;;;;;;5.15;4.30;;;;;;;16.47;99.29;99535.82;1688071;84;25574;-70
2022/07/31 05:14:20;;;;;;;4.37;4.07;;;;;;;16.48;99.32;99544.20;1689391;84;27400;-70
2022/07/31 05:16:47;;;;;;;4.50;4.10;;;;;;;16.47;99.16;99534.45;1689202;85;25596;-70
2022/07/31 05:19:14;;;;;;;5.20;4.65;;;;;;;16.46;99.22;99532.28;1689048;84;25569;-70
2022/07/31 05:21:43;;;;;;;6.55;4.37;;;;;;;16.47;99.24;99531.73;1659556;85;25712;-70
2022/07/31 05:24:09;;;;;;;4.25;3.95;;;;;;;16.45;99.23;99526.63;1689056;85;25730;-70
2022/07/31 05:26:37;;;;;;;6.78;4.15;;;;;;;16.46;99.33;99524.69;1689050;85;27349;-70
2022/07/31 05:29:04;;;;;;;4.42;3.92;;;;;;;16.46;99.35;99530.14;1688960;85;25510;-70
2022/07/31 05:31:31;;;;;;;5.58;4.20;;;;;;;16.46;99.44;99530.92;1689001;84;25617;-70
2022/07/31 05:33:59;;;;;;;4.78;4.33;;;;;;;16.46;99.60;99528.19;1688996;85;25677;-70
2022/07/31 05:36:26;;;;;;;6.83;5.78;;;;;;;16.47;99.75;99527.63;1689182;84;25582;-70
2022/07/31 05:38:52;;;;;;;5.20;4.70;;;;;;;16.48;99.69;99525.91;1689024;84;27565;-70
2022/07/31 05:41:18;;;;;;;5.25;4.75;;;;;;;16.48;99.83;99530.00;1688973;84;25475;-70
2022/07/31 05:43:44;;;;;;;4.50;4.08;;;;;;;16.49;99.80;99530.19;1689015;85;25394;-70
2022/07/31 05:46:12;;;;;;;5.70;4.33;;;;;;;16.50;99.73;99535.06;1689017;84;25699;-69
2022/07/31 05:48:42;;;;;;;4.42;4.12;;;;;;;16.50;99.86;99530.97;1688969;84;25560;-69
2022/07/31 05:51:11;;;;;;;6.37;4.62;;;;;;;16.51;99.90;99528.47;1688982;84;27309;-69
2022/07/31 05:53:39;;;;;;;4.55;4.15;;;;;;;16.52;99.98;99527.32;1689087;84;25418;-69
2022/07/31 05:56:06;;;;;;;7.40;4.97;;;;;;;16.51;99.98;99530.61;1689042;84;25680;-69
2022/07/31 05:58:33;;;;;;;4.75;4.12;;;;;;;16.53;100.00;99532.41;1689010;84;25665;-69
2022/07/31 06:01:00;;;;;;;4.45;4.08;;;;;;;16.54;99.93;99523.05;1689168;84;25656;-69
2022/07/31 06:03:27;;;;;;;4.92;4.22;;;;;;;16.53;99.83;99520.69;1689039;84;27302;-69
2022/07/31 06:05:54;;;;;;;3.92;3.60;;;;;;;16.54;99.98;99525.00;1688924;84;25617;-69
2022/07/31 06:08:22;;;;;;;4.53;4.15;;;;;;;16.53;99.96;99524.23;1687435;84;25497;-68
2022/07/31 06:10:48;;;;;;;4.33;3.92;;;;;;;16.54;100.00;99527.14;1686823;85;26486;-68
2022/07/31 06:13:14;;;;;;;4.33;3.98;;;;;;;16.56;100.00;99525.41;1686973;85;25480;-68
2022/07/31 06:15:42;;;;;;;10.78;6.90;;;;;;;16.57;100.00;99527.00;1686980;84;26841;-68
2022/07/31 06:18:08;;;;;;;3.83;3.52;;;;;;;16.57;100.00;99523.69;1686837;84;25799;-68
2022/07/31 06:20:35;;;;;;;4.90;3.35;;;;;;;16.58;100.00;99522.55;1687039;84;25641;-68
2022/07/31 06:23:01;;;;;;;4.08;3.50;;;;;;;16.58;100.00;99524.47;1686877;85;25635;-68
2022/07/31 06:25:27;;;;;;;4.03;3.72;;;;;;;16.58;100.00;99519.81;1686954;85;25395;-68
2022/07/31 06:27:53;;;;;;;4.08;3.67;;;;;;;16.61;100.00;99516.91;1686957;84;28047;-68
2022/07/31 06:30:20;;;;;;;4.55;3.98;;;;;;;16.61;100.00;99515.55;1686866;85;25411;-68
2022/07/31 06:32:46;;;;;;;4.15;3.75;;;;;;;16.62;100.00;99522.00;1686920;84;25439;-68
2022/07/31 06:35:13;;;;;;;4.67;4.17;;;;;;;16.62;100.00;99516.55;1686925;84;25686;-68
2022/07/31 06:37:39;;;;;;;3.72;3.42;;;;;;;16.65;100.00;99517.73;1687000;84;25592;-68
2022/07/31 06:40:07;;;;;;;4.20;3.90;;;;;;;16.66;100.00;99514.45;1686930;85;27394;-69
2022/07/31 06:42:33;;;;;;;4.80;4.30;;;;;;;16.67;100.00;99525.56;1686857;84;25430;-68
2022/07/31 06:44:59;;;;;;;5.87;5.28;;;;;;;16.70;100.00;99524.27;1686954;85;25501;-68
2022/07/31 06:47:26;;;;;;;5.95;5.37;;;;;;;16.72;100.00;99521.95;1686883;85;26336;-68
2022/07/31 06:49:54;;;;;;;6.15;5.65;;;;;;;16.73;100.00;99526.83;1686963;84;25402;-68
2022/07/31 06:52:20;;;;;;;5.95;5.08;;;;;;;16.74;100.00;99518.86;1686879;85;27385;-68
2022/07/31 06:54:46;;;;;;;5.58;4.50;;;;;;;16.76;100.00;99513.22;1686849;84;25403;-68
2022/07/31 06:57:13;;;;;;;4.60;4.30;;;;;;;16.78;100.00;99516.36;1686952;85;25642;-68
2022/07/31 06:59:40;;;;;;;5.75;4.90;;;;;;;16.80;100.00;99514.07;1686895;85;26342;-68
2022/07/31 07:02:07;;;;;;;6.60;5.08;;;;;;;16.81;100.00;99512.90;1686934;84;25417;-68
2022/07/31 07:04:34;;;;;;;4.67;4.28;;;;;;;16.83;100.00;99510.39;1686911;84;28382;-68
2022/07/31 07:07:00;;;;;;;4.65;4.25;;;;;;;16.86;100.00;99514.56;1686834;84;25406;-68
2022/07/31 07:09:26;;;;;;;5.03;4.62;;;;;;;16.88;100.00;99515.55;1687850;84;25651;-68
2022/07/31 07:11:52;;;;;;;4.92;4.60;;;;;;;16.90;100.00;99512.65;1686895;84;25617;-68
2022/07/31 07:14:18;;;;;;;5.40;4.95;;;;;;;16.90;100.00;99511.88;1686947;84;25413;-68
2022/07/31 07:16:44;;;;;;;7.12;6.42;;;;;;;16.93;100.00;99516.59;1686956;84;27403;-68
2022/07/31 07:19:11;;;;;;;6.33;5.72;;;;;;;16.94;100.00;99511.33;1686871;84;25652;-68
2022/07/31 07:21:37;;;;;;;6.17;5.62;;;;;;;16.97;100.00;99503.20;1686910;84;25426;-68
2022/07/31 07:24:05;;;;;;;6.15;5.60;;;;;;;17.02;100.00;99503.44;1686830;84;26312;-68
2022/07/31 07:26:31;;;;;;;6.53;5.92;;;;;;;17.03;100.00;99500.92;1686916;84;25466;-68
2022/07/31 07:28:58;;;;;;;6.65;6.05;;;;;;;17.07;100.00;99500.38;1686931;84;27562;-68
2022/07/31 07:31:25;;;;;;;6.80;6.20;;;;;;;17.11;100.00;99498.48;1686765;84;25721;-68
2022/07/31 07:33:51;;;;;;;8.08;7.37;;;;;;;17.16;100.00;99500.89;1686954;84;25707;-68
2022/07/31 07:36:17;;;;;;;6.08;5.58;;;;;;;17.20;100.00;99500.92;1686967;84;25642;-68
2022/07/31 07:38:43;;;;;;;6.60;6.03;;;;;;;17.26;100.00;99502.73;1686995;84;25586;-68
2022/07/31 07:41:10;;;;;;;6.53;6.03;;;;;;;17.27;100.00;99503.73;1686905;85;28018;-68
2022/07/31 07:43:36;;;;;;;6.55;5.95;;;;;;;17.33;100.00;99507.72;1686809;84;25884;-68
2022/07/31 07:46:02;;;;;;;6.30;5.78;;;;;;;17.38;100.00;99509.31;1666031;85;25603;-69
2022/07/31 07:48:28;;;;;;;6.15;5.65;;;;;;;17.42;100.00;99507.98;1686946;84;26276;-69
2022/07/31 07:50:54;;;;;;;6.40;5.78;;;;;;;17.44;100.00;99507.83;1686985;84;25492;-69
2022/07/31 07:53:20;;;;;;;5.83;5.33;;;;;;;17.44;100.00;99514.66;1686864;84;28091;-69
2022/07/31 07:55:46;;;;;;;6.30;5.80;;;;;;;17.48;100.00;99510.59;1686834;84;25453;-69
2022/07/31 07:58:13;;;;;;;6.67;5.72;;;;;;;17.50;100.00;99506.34;1686884;84;25486;-69
2022/07/31 08:00:40;;;;;;;8.93;5.42;;;;;;;17.52;100.00;99514.95;1686811;84;25694;-69
2022/07/31 08:03:06;;;;;;;8.75;6.17;;;;;;;17.57;100.00;99513.83;1686917;84;25650;-69
2022/07/31 08:05:32;;;;;;;8.20;7.50;;;;;;;17.61;100.00;99516.59;1686884;85;27322;-69
2022/07/31 08:07:59;;;;;;;6.10;5.60;;;;;;;17.62;100.00;99512.69;1686733;84;25407;-69
2022/07/31 08:10:25;;;;;;;5.80;5.20;;;;;;;17.65;100.00;99509.98;1687612;84;25581;-69
2022/07/31 08:12:53;;;;;;;5.85;5.35;;;;;;;17.71;100.00;99513.95;1689055;84;25865;-69
2022/07/31 08:15:20;;;;;;;5.22;4.83;;;;;;;17.72;100.00;99516.10;1689125;84;25440;-69
2022/07/31 08:17:46;;;;;;;5.20;4.78;;;;;;;17.73;100.00;99515.73;1689082;84;27350;-69
2022/07/31 08:20:12;;;;;;;5.72;5.00;;;;;;;17.75;100.00;99519.45;1689001;84;25759;-69
2022/07/31 08:22:38;;;;;;;5.08;4.58;;;;;;;17.77;100.00;99514.98;1689169;85;25519;-69
2022/07/31 08:25:06;;;;;;;5.35;4.47;;;;;;;17.79;100.00;99512.66;1689115;84;26459;-69
2022/07/31 08:27:32;;;;;;;5.37;4.72;;;;;;;17.82;100.00;99518.74;1689112;84;25647;-69
2022/07/31 08:30:00;;;;;;;5.50;4.80;;;;;;;17.84;100.00;99521.87;1689105;84;27321;-69
2022/07/31 08:32:27;;;;;;;4.95;4.45;;;;;;;17.85;100.00;99522.88;1688938;84;25684;-69
2022/07/31 08:34:55;;;;;;;5.00;4.55;;;;;;;17.86;100.00;99514.91;1689087;85;25438;-69
2022/07/31 08:37:22;;;;;;;4.35;4.05;;;;;;;17.87;100.00;99519.20;1689059;84;25658;-69
2022/07/31 08:39:50;;;;;;;6.95;4.67;;;;;;;17.90;100.00;99518.45;1689133;84;25628;-69
2022/07/31 08:42:17;;;;;;;5.03;4.62;;;;;;;17.91;100.00;99520.05;1689084;84;27320;-69
2022/07/31 08:44:45;;;;;;;5.30;4.55;;;;;;;17.96;100.00;99522.22;1689015;84;25496;-69
2022/07/31 08:47:14;;;;;;;4.92;4.50;;;;;;;17.99;100.00;99520.09;1689084;84;25431;-69
2022/07/31 08:49:45;;;;;;;4.42;4.00;;;;;;;18.00;100.00;99518.95;1689254;84;34762;-69
2022/07/31 08:52:18;;;;;;;5.00;4.50;;;;;;;18.00;100.00;99519.72;1689095;85;25645;-69
2022/07/31 08:54:48;;;;;;;5.72;5.03;;;;;;;18.03;100.00;99519.53;1689066;84;28075;-69
2022/07/31 08:57:15;;;;;;;4.17;3.87;;;;;;;18.05;100.00;99524.84;1688945;84;25635;-69
2022/07/31 08:59:42;;;;;;;4.72;4.33;;;;;;;18.05;100.00;99524.07;1689065;84;25605;-69
2022/07/31 09:02:11;;;;;;;6.30;4.42;;;;;;;18.08;100.00;99521.92;1688983;84;25629;-69
2022/07/31 09:04:37;;;;;;;5.00;4.50;;;;;;;18.11;100.00;99523.91;1689220;84;25586;-69
2022/07/31 09:07:06;;;;;;;4.80;4.40;;;;;;;18.14;100.00;99521.79;1689026;84;28125;-69
2022/07/31 09:09:32;;;;;;;5.10;4.70;;;;;;;18.20;100.00;99521.66;1687166;84;27760;-69
2022/07/31 09:12:00;;;;;;;4.55;4.20;;;;;;;18.25;100.00;99519.93;1686841;84;25475;-69
2022/07/31 09:14:33;;;;;;;5.42;4.60;;;;;;;18.26;100.00;99522.85;1686800;85;26355;-68
2022/07/31 09:17:02;;;;;;;4.78;4.42;;;;;;;18.28;100.00;99527.95;1686865;84;25646;-69
2022/07/31 09:19:44;;;;;;;5.30;4.45;;;;;;;18.29;100.00;99524.84;1686973;84;27333;-69
2022/07/31 09:22:25;;;;;;;4.78;4.37;;;;;;;18.35;100.00;99533.47;1686739;85;25606;-69
2022/07/31 09:24:53;;;;;;;4.55;4.17;;;;;;;18.39;100.00;99528.83;1686847;84;25495;-68
2022/07/31 09:27:23;;;;;;;4.80;4.40;;;;;;;18.43;100.00;99540.58;1686810;84;25626;-69
2022/07/31 09:29:51;;;;;;;5.25;4.75;;;;;;;18.43;100.00;99530.99;1685751;85;25648;-69
2022/07/31 09:32:20;;;;;;;4.75;4.20;;;;;;;18.50;100.00;99533.00;1686796;84;28123;-69
2022/07/31 09:34:48;;;;;;;5.10;4.60;;;;;;;18.57;100.00;99535.00;1686986;85;25398;-69
2022/07/31 09:37:18;;;;;;;5.72;5.33;;;;;;;18.65;100.00;99535.25;1686823;84;25582;-68
2022/07/31 09:39:51;;;;;;;4.62;4.22;;;;;;;18.69;100.00;99538.78;1686787;84;25711;-69
2022/07/31 09:42:19;;;;;;;4.20;3.90;;;;;;;18.73;100.00;99545.09;1686600;84;25466;-69
2022/07/31 09:44:47;;;;;;;4.00;3.80;;;;;;;18.73;100.00;99546.45;1686807;84;27314;-68
2022/07/31 09:47:23;;;;;;;4.60;3.73;;;;;;;18.73;100.00;99538.24;1686965;84;25643;-69
2022/07/31 09:49:58;;;;;;;4.37;4.08;;;;;;;18.71;100.00;99547.43;1686823;84;25426;-69
2022/07/31 09:52:27;;;;;;;4.10;3.80;;;;;;;18.74;100.00;99550.75;1686627;84;25732;-69
2022/07/31 09:55:07;;;;;;;4.20;3.80;;;;;;;18.80;100.00;99551.20;1686972;84;25425;-69
2022/07/31 09:57:34;;;;;;;4.40;4.00;;;;;;;18.91;100.00;99566.34;1682033;85;27407;-69
2022/07/31 10:00:04;;;;;;;4.62;3.75;;;;;;;18.80;100.00;99542.98;1686743;85;25937;-68
2022/07/31 10:02:32;;;;;;;4.37;3.98;;;;;;;18.83;100.00;99544.39;1686838;84;25666;-69
2022/07/31 10:04:59;;;;;;;4.00;3.47;;;;;;;18.85;100.00;99543.42;1686825;84;25620;-69
2022/07/31 10:07:28;;;;;;;4.25;3.90;;;;;;;18.88;100.00;99535.59;1686968;84;25578;-70
2022/07/31 10:09:58;;;;;;;4.72;3.65;;;;;;;18.92;100.00;99533.08;1688407;84;27322;-70
2022/07/31 10:12:28;;;;;;;4.12;3.70;;;;;;;18.97;100.00;99539.56;1688940;84;25534;-69
2022/07/31 10:14:58;;;;;;;5.45;4.47;;;;;;;19.02;100.00;99537.05;1689071;84;25649;-69
2022/07/31 10:17:29;;;;;;;4.75;4.40;;;;;;;19.06;100.00;99541.95;1689006;85;27750;-69
2022/07/31 10:20:03;;;;;;;4.65;4.25;;;;;;;19.08;100.00;99538.83;1689116;84;25455;-69
2022/07/31 10:22:43;;;;;;;5.15;4.75;;;;;;;19.03;100.00;99539.98;1689064;85;27397;-69
2022/07/31 10:25:15;;;;;;;5.67;4.28;;;;;;;19.01;100.00;99554.06;1689019;84;25750;-69
2022/07/31 10:27:42;;;;;;;4.58;4.22;;;;;;;18.94;100.00;99551.29;1688998;84;25633;-69
2022/07/31 10:30:10;;;;;;;5.58;5.08;;;;;;;18.90;100.00;99547.76;1689095;85;25644;-69
2022/07/31 10:32:36;;;;;;;5.45;4.92;;;;;;;18.89;100.00;99555.77;1689074;84;25252;-69
2022/07/31 10:35:07;;;;;;;4.67;4.28;;;;;;;18.90;100.00;99556.55;1689144;84;27375;-69
2022/07/31 10:37:41;;;;;;;5.17;4.67;;;;;;;18.87;100.00;99558.11;1689046;84;25878;-68
2022/07/31 10:40:22;;;;;;;5.20;4.70;;;;;;;18.82;100.00;99559.81;1689033;84;25562;-69
2022/07/31 10:43:14;;;;;;;5.03;4.62;;;;;;;18.81;100.00;99559.59;1689094;84;26047;-69
2022/07/31 10:45:52;;;;;;;5.45;5.00;;;;;;;18.84;100.00;99554.16;1655325;86;25785;-69
2022/07/31 10:48:21;;;;;;;6.10;5.60;;;;;;;18.84;100.00;99563.75;1655217;86;27644;-69
2022/07/31 10:50:50;;;;;;;5.50;5.00;;;;;;;18.82;100.00;99559.25;1655303;86;35173;-69
2022/07/31 10:53:18;;;;;;;5.60;5.10;;;;;;;18.87;100.00;99560.07;1653749;86;25782;-69
2022/07/31 10:55:45;;;;;;;6.28;5.67;;;;;;;18.87;100.00;99555.97;1655168;86;25635;-69
2022/07/31 10:58:23;;;;;;;6.65;5.30;;;;;;;18.89;100.00;99559.09;1655262;86;25784;-70
2022/07/31 11:00:45;;;;;;;5.45;4.85;;;;;;;18.94;100.00;99564.98;1655142;86;27342;-69
2022/07/31 11:03:19;;;;;;;6.65;5.62;;;;;;;18.99;100.00;99562.48;1655234;86;25749;-69
2022/07/31 11:05:56;;;;;;;5.87;5.35;;;;;;;19.04;100.00;99564.27;1654908;86;25708;-69
2022/07/31 11:08:22;;;;;;;5.62;5.12;;;;;;;19.09;100.00;99566.45;1655303;86;25702;-68
2022/07/31 11:10:55;;;;;;;7.33;5.72;;;;;;;19.11;100.00;99568.22;1651357;86;25863;-69
2022/07/31 11:13:24;;;;;;;6.40;5.40;;;;;;;19.15;100.00;99567.05;1651050;86;27346;-69
2022/07/31 11:16:02;;;;;;;5.55;4.62;;;;;;;19.17;100.00;99561.98;1651101;86;25680;-69
2022/07/31 11:18:29;;;;;;;5.35;4.67;;;;;;;19.15;100.00;99566.27;1651117;86;25593;-69
2022/07/31 11:21:06;;;;;;;6.00;4.75;;;;;;;19.11;100.00;99566.84;1651020;86;25618;-70
2022/07/31 11:23:34;;;;;;;6.05;5.33;;;;;;;19.10;100.00;99577.59;1681531;85;25581;-69
2022/07/31 11:26:05;;;;;;;6.65;5.30;;;;;;;19.08;100.00;99574.46;1686893;85;27440;-69
2022/07/31 11:28:34;;;;;;;5.55;4.72;;;;;;;19.06;100.00;99580.32;1686851;85;25761;-69
2022/07/31 11:31:05;;;;;;;8.85;8.05;;;;;;;19.06;100.00;99578.17;1686920;84;25465;-69
2022/07/31 11:33:45;;;;;;;7.20;6.50;;;;;;;19.10;100.00;99575.63;1686741;84;25592;-69
2022/07/31 11:36:20;;;;;;;6.33;5.70;;;;;;;19.15;100.00;99577.23;1686974;85;25605;-69